Time;durP1;ratioP1;P1;durP2;ratioP2;P2;SDS_P1;SDS_P2;PMS_P1;PMS_P2;Temp;Humidity;BMP_temperature;BMP_pressure;BME280_temperature;BME280_humidity;BME280_pressure;Samples;Min_cycle;Max_cycle;Signal;HPM_P1;HPM_P2
2024/02/20 00:00:44;;;;;;;86.95;44.97;;;;;;;7.97;100.00;100185.66;5112617;28;20077;-69
2024/02/20 00:03:09;;;;;;;92.50;46.97;;;;;;;7.92;100.00;100188.53;5112077;28;20374;-69
2024/02/20 00:05:35;;;;;;;87.72;44.70;;;;;;;7.71;100.00;100183.22;5094073;28;20027;-68
2024/02/20 00:08:03;;;;;;;92.13;47.20;;;;;;;7.81;100.00;100187.84;5112229;28;20051;-69
2024/02/20 00:10:29;;;;;;;93.25;48.45;;;;;;;7.90;100.00;100186.03;5112295;28;20034;-68
2024/02/20 00:12:57;;;;;;;93.90;48.13;;;;;;;7.96;100.00;100184.03;5094030;28;20514;-69
2024/02/20 00:15:23;;;;;;;86.95;44.53;;;;;;;7.93;100.00;100176.28;5112269;28;20020;-68
2024/02/20 00:17:49;;;;;;;86.38;44.63;;;;;;;7.79;100.00;100173.38;5111585;28;20081;-68
2024/02/20 00:20:15;;;;;;;86.47;46.13;;;;;;;7.69;100.00;100185.50;5112296;28;20043;-69
2024/02/20 00:22:40;;;;;;;84.43;44.15;;;;;;;7.79;100.00;100178.94;5111996;28;20488;-69
2024/02/20 00:25:07;;;;;;;83.88;44.15;;;;;;;7.91;100.00;100182.13;5111418;28;20119;-71
2024/02/20 00:27:33;;;;;;;88.60;47.63;;;;;;;7.91;100.00;100179.34;5111907;28;20211;-71
2024/02/20 00:29:58;;;;;;;87.65;44.60;;;;;;;7.83;100.00;100174.44;5093049;28;20115;-71
2024/02/20 00:32:24;;;;;;;93.68;46.83;;;;;;;7.77;100.00;100175.63;5111718;28;20492;-71
2024/02/20 00:34:50;;;;;;;88.32;43.78;;;;;;;7.82;100.00;100172.78;5111441;28;20077;-71
2024/02/20 00:37:16;;;;;;;91.80;44.35;;;;;;;7.76;100.00;100176.78;5111620;28;20019;-71
2024/02/20 00:39:42;;;;;;;89.35;43.30;;;;;;;7.52;100.00;100172.06;5111684;28;20600;-71
2024/02/20 00:42:08;;;;;;;88.88;45.92;;;;;;;7.14;100.00;100173.59;5110926;28;20107;-71
2024/02/20 00:44:34;;;;;;;87.97;46.47;;;;;;;6.72;100.00;100166.78;5111429;28;20024;-71
2024/02/20 00:47:00;;;;;;;99.05;50.03;;;;;;;6.43;100.00;100168.41;5091403;28;20475;-71
2024/02/20 00:49:25;;;;;;;100.53;47.97;;;;;;;6.58;100.00;100164.66;5110829;28;20084;-71
2024/02/20 00:51:51;;;;;;;97.93;50.20;;;;;;;6.62;100.00;100166.84;5111069;28;20023;-71
2024/02/20 00:54:17;;;;;;;89.82;46.72;;;;;;;6.57;100.00;100156.59;5093090;28;20020;-71
2024/02/20 00:56:44;;;;;;;101.20;50.05;;;;;;;6.63;100.00;100163.81;5111024;28;20027;-71
2024/02/20 00:59:10;;;;;;;108.75;51.17;;;;;;;6.84;100.00;100152.50;5092940;28;20027;-71
2024/02/20 01:01:37;;;;;;;99.82;49.03;;;;;;;6.98;100.00;100147.91;5092120;28;20030;-71
2024/02/20 01:04:04;;;;;;;97.45;49.35;;;;;;;7.03;100.00;100147.00;5110555;28;20551;-71
2024/02/20 01:06:29;;;;;;;89.07;45.75;;;;;;;6.90;100.00;100153.28;5091066;28;20408;-71
2024/02/20 01:08:55;;;;;;;95.80;50.40;;;;;;;6.58;100.00;100149.97;5090752;28;20048;-71
2024/02/20 01:11:20;;;;;;;93.97;47.65;;;;;;;6.29;100.00;100140.47;5086405;28;20108;-71
2024/02/20 01:13:46;;;;;;;93.93;48.53;;;;;;;6.12;100.00;100137.25;5092774;28;20031;-71
2024/02/20 01:16:11;;;;;;;101.63;50.55;;;;;;;6.19;100.00;100140.53;5110810;28;20020;-71
2024/02/20 01:18:41;;;;;;;96.03;46.35;;;;;;;6.35;100.00;100144.03;5104097;28;20081;-71
2024/02/20 01:21:07;;;;;;;95.75;50.78;;;;;;;6.27;100.00;100134.34;5105863;28;20032;-71
2024/02/20 01:23:32;;;;;;;102.18;50.28;;;;;;;6.17;100.00;100137.22;5096702;28;20080;-71
2024/02/20 01:25:57;;;;;;;93.72;47.92;;;;;;;5.99;100.00;100135.94;5092280;28;20031;-71
2024/02/20 01:28:23;;;;;;;97.00;48.13;;;;;;;6.14;100.00;100137.78;5110974;28;20454;-71
2024/02/20 01:30:48;;;;;;;101.35;48.33;;;;;;;6.03;100.00;100125.91;5110674;28;20444;-71
2024/02/20 01:33:14;;;;;;;102.55;49.95;;;;;;;6.00;100.00;100126.47;5109881;28;20046;-72
2024/02/20 01:35:41;;;;;;;96.50;49.63;;;;;;;6.14;100.00;100124.72;5092341;28;20049;-72
2024/02/20 01:38:07;;;;;;;94.63;49.53;;;;;;;6.16;100.00;100125.28;5090856;28;20060;-72
2024/02/20 01:40:32;;;;;;;101.88;48.78;;;;;;;6.29;100.00;100126.56;5090293;28;20044;-72
2024/02/20 01:42:59;;;;;;;102.15;49.75;;;;;;;6.44;100.00;100122.81;5090052;28;20075;-72
2024/02/20 01:45:27;;;;;;;101.55;49.15;;;;;;;6.38;100.00;100125.94;5091275;28;20027;-72
2024/02/20 01:47:53;;;;;;;91.70;47.70;;;;;;;6.42;100.00;100121.47;5109577;28;20456;-72
2024/02/20 01:50:20;;;;;;;92.00;47.53;;;;;;;6.35;100.00;100118.19;5110398;28;20098;-72
2024/02/20 01:52:46;;;;;;;90.30;44.88;;;;;;;6.56;100.00;100122.44;5110370;28;20065;-71
2024/02/20 01:55:12;;;;;;;94.53;50.08;;;;;;;6.31;100.00;100127.09;5096804;28;20484;-72
2024/02/20 01:57:39;;;;;;;96.15;48.22;;;;;;;6.21;100.00;100116.06;5064968;28;20070;-73
2024/02/20 02:00:06;;;;;;;99.28;47.60;;;;;;;6.27;100.00;100114.88;5049772;28;20021;-72
2024/02/20 02:02:32;;;;;;;99.15;50.40;;;;;;;6.18;100.00;100111.09;5048312;28;20064;-72
2024/02/20 02:04:57;;;;;;;94.72;48.17;;;;;;;5.96;100.00;100122.59;5064840;28;20059;-72
2024/02/20 02:07:23;;;;;;;98.20;49.80;;;;;;;6.13;100.00;100116.69;5069550;28;20471;-72
2024/02/20 02:09:48;;;;;;;99.47;46.47;;;;;;;6.12;100.00;100112.25;5072634;28;20394;-72
2024/02/20 02:12:14;;;;;;;93.35;47.85;;;;;;;6.02;100.00;100111.19;5076238;28;20064;-72
2024/02/20 02:14:45;;;;;;;93.40;47.72;;;;;;;6.03;100.00;100112.88;5075750;28;20032;-72
2024/02/20 02:17:13;;;;;;;97.47;47.85;;;;;;;5.94;100.00;100120.13;5074795;28;20024;-72
2024/02/20 02:19:39;;;;;;;98.03;50.08;;;;;;;5.87;100.00;100114.91;5076168;28;20043;-72
2024/02/20 02:22:06;;;;;;;112.63;50.58;;;;;;;5.88;100.00;100110.16;5075209;28;20024;-71
2024/02/20 02:24:34;;;;;;;104.72;50.78;;;;;;;5.90;100.00;100113.47;5074254;28;20056;-72
2024/02/20 02:26:59;;;;;;;100.28;49.17;;;;;;;6.03;100.00;100115.66;5075367;28;20495;-72
2024/02/20 02:29:25;;;;;;;97.93;50.90;;;;;;;6.03;100.00;100112.03;5076738;28;20025;-72
2024/02/20 02:31:51;;;;;;;99.72;49.20;;;;;;;6.29;100.00;100115.47;5076140;28;20024;-71
2024/02/20 02:34:17;;;;;;;104.18;51.90;;;;;;;6.25;100.00;100111.59;5075473;28;20032;-72
2024/02/20 02:36:43;;;;;;;105.15;51.03;;;;;;;6.16;100.00;100105.81;5076064;28;20055;-72
2024/02/20 02:39:09;;;;;;;113.53;51.83;;;;;;;6.28;100.00;100110.19;5075793;28;20020;-73
2024/02/20 02:41:35;;;;;;;98.80;50.08;;;;;;;6.32;100.00;100112.09;5091484;28;20028;-72
2024/02/20 02:44:00;;;;;;;105.68;47.97;;;;;;;6.24;100.00;100118.25;5073913;28;20475;-72
2024/02/20 02:46:26;;;;;;;96.85;48.83;;;;;;;6.50;100.00;100118.03;5074011;28;20481;-72
2024/02/20 02:48:51;;;;;;;101.68;50.88;;;;;;;6.45;100.00;100115.31;5091455;28;20036;-71
2024/02/20 02:51:17;;;;;;;96.28;48.03;;;;;;;6.27;100.00;100114.88;5091520;28;20024;-72
2024/02/20 02:53:42;;;;;;;106.15;49.58;;;;;;;6.47;100.00;100107.50;5090292;28;20027;-72
2024/02/20 02:56:10;;;;;;;93.45;49.58;;;;;;;6.50;100.00;100112.47;5075930;28;20044;-72
2024/02/20 02:58:36;;;;;;;89.50;45.55;;;;;;;6.63;100.00;100116.53;5109387;28;20046;-73
2024/02/20 03:01:02;;;;;;;99.30;46.78;;;;;;;6.71;100.00;100112.28;5116547;28;20035;-71
2024/02/20 03:03:27;;;;;;;86.93;43.83;;;;;;;6.78;100.00;100117.50;5097674;28;20138;-72
2024/02/20 03:05:53;;;;;;;100.38;49.58;;;;;;;6.41;100.00;100115.06;5112774;28;20024;-72
2024/02/20 03:08:19;;;;;;;102.93;49.40;;;;;;;6.17;100.00;100112.22;5096188;28;20048;-72
2024/02/20 03:10:45;;;;;;;98.30;48.30;;;;;;;6.29;100.00;100111.84;5095860;28;20481;-72
2024/02/20 03:13:10;;;;;;;106.40;49.03;;;;;;;6.29;100.00;100118.22;5096018;28;20488;-72
2024/02/20 03:15:35;;;;;;;104.25;51.28;;;;;;;6.18;100.00;100113.88;5114886;28;20416;-72
2024/02/20 03:18:01;;;;;;;96.85;49.75;;;;;;;6.45;100.00;100120.88;5083542;28;20424;-72
2024/02/20 03:20:27;;;;;;;111.75;50.83;;;;;;;6.25;100.00;100110.75;5095466;28;20032;-72
2024/02/20 03:22:53;;;;;;;107.88;51.50;;;;;;;6.04;100.00;100117.31;5094639;28;20030;-71
2024/02/20 03:25:19;;;;;;;107.55;50.72;;;;;;;6.03;100.00;100107.31;5112510;28;20112;-72
2024/02/20 03:27:44;;;;;;;106.40;54.00;;;;;;;5.98;100.00;100110.09;5092235;28;20024;-72
2024/02/20 03:30:10;;;;;;;107.95;53.53;;;;;;;5.94;100.00;100117.34;5092547;28;20024;-72
2024/02/20 03:32:35;;;;;;;102.72;51.97;;;;;;;5.90;100.00;100119.03;5081995;28;20034;-72
2024/02/20 03:35:02;;;;;;;113.75;54.00;;;;;;;6.07;100.00;100115.06;5112013;28;20094;-72
2024/02/20 03:37:28;;;;;;;112.82;48.60;;;;;;;6.09;100.00;100115.59;5111781;28;20031;-72
2024/02/20 03:39:53;;;;;;;109.57;53.78;;;;;;;6.04;100.00;100117.31;5112723;28;20553;-72
2024/02/20 03:42:19;;;;;;;103.90;49.75;;;;;;;6.02;100.00;100121.50;5109954;28;20034;-72
2024/02/20 03:44:44;;;;;;;107.05;54.03;;;;;;;6.02;100.00;100122.31;5106229;28;20032;-72
2024/02/20 03:47:10;;;;;;;113.13;53.80;;;;;;;6.09;100.00;100129.50;5088745;28;20048;-72
2024/02/20 03:49:35;;;;;;;110.65;51.90;;;;;;;6.13;100.00;100125.00;5093539;28;20031;-72
2024/02/20 03:52:01;;;;;;;124.03;58.45;;;;;;;6.09;100.00;100118.38;5112600;28;20518;-72
2024/02/20 03:54:26;;;;;;;109.28;55.50;;;;;;;6.10;100.00;100122.81;5112210;28;20500;-71
2024/02/20 03:56:52;;;;;;;115.95;56.38;;;;;;;6.04;100.00;100120.09;5112542;28;20388;-71
2024/02/20 03:59:17;;;;;;;126.68;61.42;;;;;;;6.00;100.00;100115.38;5112650;28;20043;-71
2024/02/20 04:01:43;;;;;;;119.07;59.25;;;;;;;6.16;100.00;100124.44;5098720;28;20028;-71
2024/02/20 04:04:10;;;;;;;121.78;59.55;;;;;;;6.09;100.00;100129.50;5096271;28;20024;-71
2024/02/20 04:06:35;;;;;;;123.88;60.47;;;;;;;5.98;100.00;100132.31;5112251;28;20023;-71
2024/02/20 04:09:04;;;;;;;132.02;64.65;;;;;;;6.16;100.00;100127.22;5112557;28;20132;-71
2024/02/20 04:11:33;;;;;;;129.48;64.60;;;;;;;6.08;100.00;100123.09;5094073;28;20055;-71
2024/02/20 04:13:59;;;;;;;135.02;65.55;;;;;;;5.96;100.00;100134.53;5092853;28;20050;-71
2024/02/20 04:16:24;;;;;;;137.98;66.15;;;;;;;5.99;100.00;100117.31;5102159;28;20414;-71
2024/02/20 04:18:50;;;;;;;129.60;64.20;;;;;;;5.98;100.00;100126.75;5091885;28;20111;-71
2024/02/20 04:21:15;;;;;;;131.40;63.55;;;;;;;6.00;100.00;100121.72;5091822;28;20481;-71
2024/02/20 04:23:41;;;;;;;147.48;73.57;;;;;;;6.30;100.00;100125.44;5091697;28;20028;-71
2024/02/20 04:26:06;;;;;;;155.50;75.75;;;;;;;6.43;100.00;100117.56;5091549;28;20039;-71
2024/02/20 04:28:35;;;;;;;142.40;71.38;;;;;;;6.25;100.00;100128.25;5091912;28;20051;-71
2024/02/20 04:31:02;;;;;;;132.60;67.82;;;;;;;6.30;100.00;100130.16;5073454;28;20020;-70
2024/02/20 04:33:28;;;;;;;140.82;73.10;;;;;;;6.16;100.00;100118.91;5085555;28;20510;-71
2024/02/20 04:35:53;;;;;;;139.40;73.80;;;;;;;6.25;100.00;100121.88;5110881;28;20023;-71
2024/02/20 04:38:19;;;;;;;154.65;81.80;;;;;;;6.20;100.00;100125.53;5093563;28;20035;-70
2024/02/20 04:40:44;;;;;;;182.48;92.75;;;;;;;6.12;100.00;100120.56;5093480;28;20031;-70
2024/02/20 04:43:10;;;;;;;137.48;71.22;;;;;;;6.21;100.00;100126.34;5111767;28;20023;-71
2024/02/20 04:45:35;;;;;;;138.07;63.13;;;;;;;5.80;100.00;100116.34;5110706;28;20095;-71
2024/02/20 04:48:01;;;;;;;133.20;62.42;;;;;;;5.69;100.00;100119.16;5098994;28;20126;-70
2024/02/20 04:50:26;;;;;;;136.52;61.85;;;;;;;5.53;100.00;100118.41;5074126;28;20421;-71
2024/02/20 04:52:52;;;;;;;136.18;65.28;;;;;;;5.69;100.00;100121.94;5111648;28;20035;-70
2024/02/20 04:55:17;;;;;;;133.15;62.40;;;;;;;5.68;100.00;100120.28;5107086;28;20034;-70
2024/02/20 04:57:43;;;;;;;128.55;63.80;;;;;;;5.79;100.00;100125.75;5111528;28;20056;-71
2024/02/20 05:00:10;;;;;;;132.50;65.95;;;;;;;5.97;100.00;100127.88;5092830;28;20028;-71
2024/02/20 05:02:37;;;;;;;135.30;64.50;;;;;;;5.81;100.00;100101.34;5111414;28;20148;-70
2024/02/20 05:05:03;;;;;;;132.60;68.22;;;;;;;5.96;100.00;100129.00;5092333;28;20035;-68
2024/02/20 05:07:29;;;;;;;149.25;73.88;;;;;;;5.88;100.00;100135.16;5111317;28;20073;-68
2024/02/20 05:09:55;;;;;;;147.57;72.85;;;;;;;5.67;100.00;100129.72;5092335;28;20458;-68
2024/02/20 05:12:20;;;;;;;137.88;64.80;;;;;;;5.72;100.00;100128.84;5111155;28;20076;-68
2024/02/20 05:14:49;;;;;;;150.70;67.97;;;;;;;5.84;100.00;100137.66;5092092;28;20031;-68
2024/02/20 05:17:15;;;;;;;147.32;71.30;;;;;;;5.89;100.00;100128.47;5105556;28;20094;-68
2024/02/20 05:19:41;;;;;;;161.07;75.88;;;;;;;6.04;100.00;100139.53;5091198;28;20058;-68
2024/02/20 05:22:06;;;;;;;184.77;88.13;;;;;;;5.85;100.00;100138.50;5086377;28;20034;-69
2024/02/20 05:24:36;;;;;;;164.50;78.00;;;;;;;5.70;100.00;100144.97;5085647;28;20024;-68
2024/02/20 05:27:03;;;;;;;140.18;68.40;;;;;;;5.84;100.00;100134.06;5106396;28;20027;-68
2024/02/20 05:29:31;;;;;;;126.90;63.95;;;;;;;5.75;100.00;100142.19;5110711;28;20029;-69
2024/02/20 05:31:57;;;;;;;145.93;66.15;;;;;;;5.61;100.00;100141.97;5084782;28;20114;-69
2024/02/20 05:34:23;;;;;;;148.48;69.25;;;;;;;5.52;100.00;100152.00;5073044;28;20114;-68
2024/02/20 05:36:50;;;;;;;139.15;66.32;;;;;;;5.69;100.00;100148.84;5091297;28;20031;-69
2024/02/20 05:39:15;;;;;;;140.90;63.03;;;;;;;5.54;100.00;100133.09;5084491;28;20027;-68
2024/02/20 05:41:42;;;;;;;123.95;60.95;;;;;;;5.76;100.00;100136.31;5081998;28;20054;-69
2024/02/20 05:44:07;;;;;;;129.13;64.93;;;;;;;5.83;100.00;100149.06;5106534;28;20602;-68
2024/02/20 05:46:33;;;;;;;149.35;67.05;;;;;;;5.91;100.00;100137.34;5083783;28;20066;-69
2024/02/20 05:48:59;;;;;;;134.50;63.75;;;;;;;6.18;100.00;100141.66;5098739;28;20569;-67
2024/02/20 05:51:27;;;;;;;135.35;65.95;;;;;;;6.37;100.00;100152.06;5089756;28;20132;-68
2024/02/20 05:53:53;;;;;;;114.28;60.33;;;;;;;6.55;100.00;100151.38;5086582;28;20036;-69
2024/02/20 05:56:19;;;;;;;120.55;60.05;;;;;;;6.64;100.00;100156.31;5106950;28;20080;-68
2024/02/20 05:58:46;;;;;;;123.38;63.60;;;;;;;6.70;100.00;100139.28;5108540;28;20405;-68
2024/02/20 06:01:13;;;;;;;138.50;65.38;;;;;;;6.73;100.00;100137.84;5091028;28;20423;-69
2024/02/20 06:03:40;;;;;;;127.25;63.63;;;;;;;6.82;100.00;100135.28;5109096;28;20110;-68
2024/02/20 06:06:06;;;;;;;127.28;63.05;;;;;;;7.00;100.00;100159.53;5108645;28;20028;-68
2024/02/20 06:08:35;;;;;;;115.45;58.72;;;;;;;7.02;100.00;100156.47;5110411;28;20031;-72
2024/02/20 06:11:00;;;;;;;132.15;66.82;;;;;;;7.01;100.00;100138.13;5092567;28;20032;-70
2024/02/20 06:13:26;;;;;;;115.53;60.92;;;;;;;6.93;100.00;100141.56;5109619;28;20035;-71
2024/02/20 06:15:51;;;;;;;115.53;58.25;;;;;;;6.76;100.00;100142.84;5091524;28;20028;-71
2024/02/20 06:18:17;;;;;;;134.70;60.08;;;;;;;6.80;100.00;100148.63;5109708;28;20034;-71
2024/02/20 06:20:45;;;;;;;131.32;65.60;;;;;;;6.95;100.00;100154.06;5091003;28;20061;-69
2024/02/20 06:23:11;;;;;;;139.95;69.82;;;;;;;6.99;100.00;100171.81;5109430;28;20038;-69
2024/02/20 06:25:37;;;;;;;141.25;71.93;;;;;;;7.01;100.00;100172.34;5100706;28;20403;-68
2024/02/20 06:28:03;;;;;;;148.18;71.82;;;;;;;6.91;100.00;100171.63;5083851;28;20035;-67
2024/02/20 06:30:29;;;;;;;124.28;63.80;;;;;;;6.94;100.00;100171.03;5079628;28;20080;-68
2024/02/20 06:32:54;;;;;;;113.13;55.53;;;;;;;6.72;100.00;100177.91;5094629;28;20032;-68
2024/02/20 06:35:20;;;;;;;127.38;61.60;;;;;;;6.62;100.00;100175.19;5106767;28;20027;-72
2024/02/20 06:37:45;;;;;;;134.70;67.18;;;;;;;6.60;100.00;100181.06;5087874;28;20476;-69
2024/02/20 06:40:11;;;;;;;137.93;69.70;;;;;;;6.72;100.00;100180.66;5103450;28;20054;-72
2024/02/20 06:42:36;;;;;;;139.10;66.32;;;;;;;6.72;100.00;100180.66;5098696;28;20031;-71
2024/02/20 06:45:02;;;;;;;119.57;64.50;;;;;;;6.90;100.00;100181.09;5106705;28;20613;-71
2024/02/20 06:47:28;;;;;;;138.25;66.82;;;;;;;6.86;100.00;100186.41;5104163;28;20446;-70
2024/02/20 06:49:53;;;;;;;139.57;72.47;;;;;;;6.56;100.00;100179.97;5107399;28;20084;-71
2024/02/20 06:52:19;;;;;;;140.05;63.35;;;;;;;6.66;100.00;100191.00;5107547;28;20032;-69
2024/02/20 06:54:44;;;;;;;124.30;60.05;;;;;;;6.86;100.00;100191.97;5107983;28;20083;-70
2024/02/20 06:57:10;;;;;;;120.28;58.92;;;;;;;6.94;100.00;100196.91;5109989;28;20047;-71
2024/02/20 06:59:37;;;;;;;122.85;56.17;;;;;;;6.93;100.00;100199.97;5092044;28;20027;-70
2024/02/20 07:02:03;;;;;;;121.35;59.95;;;;;;;6.67;100.00;100189.06;5079387;28;20505;-70
2024/02/20 07:04:29;;;;;;;124.65;61.30;;;;;;;6.54;100.00;100196.13;5074160;28;20107;-70
2024/02/20 07:06:54;;;;;;;116.75;54.78;;;;;;;6.85;100.00;100204.22;5091899;28;20020;-70
2024/02/20 07:09:22;;;;;;;107.97;53.90;;;;;;;6.58;100.00;100200.81;5093520;28;20023;-67
2024/02/20 07:11:48;;;;;;;112.70;56.10;;;;;;;6.85;100.00;100199.47;5091746;28;20028;-71
2024/02/20 07:14:15;;;;;;;113.10;58.00;;;;;;;6.91;100.00;100199.44;5101121;28;20469;-71
2024/02/20 07:16:44;;;;;;;114.82;55.50;;;;;;;6.94;100.00;100196.91;5093903;28;20023;-70
2024/02/20 07:19:10;;;;;;;104.90;55.45;;;;;;;7.12;100.00;100186.97;5112827;28;20024;-71
2024/02/20 07:21:35;;;;;;;99.82;54.47;;;;;;;7.22;100.00;100183.25;5082465;28;20552;-71
2024/02/20 07:24:01;;;;;;;98.43;50.55;;;;;;;7.16;100.00;100185.25;5092741;28;20099;-71
2024/02/20 07:26:29;;;;;;;93.53;48.88;;;;;;;7.22;100.00;100185.19;5104552;28;20047;-71
2024/02/20 07:28:56;;;;;;;90.20;47.40;;;;;;;7.38;100.00;100185.84;5093628;28;20475;-71
2024/02/20 07:31:25;;;;;;;84.40;44.08;;;;;;;7.48;100.00;100190.47;5086379;28;20457;-71
2024/02/20 07:33:52;;;;;;;90.47;46.13;;;;;;;7.39;100.00;100182.78;5086095;28;20038;-71
2024/02/20 07:36:17;;;;;;;83.85;43.65;;;;;;;7.48;100.00;100184.91;5094667;28;20388;-70
2024/02/20 07:38:43;;;;;;;85.15;42.75;;;;;;;7.44;100.00;100191.06;5094681;28;20028;-70
2024/02/20 07:41:09;;;;;;;81.82;44.72;;;;;;;7.58;100.00;100180.06;5094329;28;20114;-71
2024/02/20 07:43:36;;;;;;;87.65;45.78;;;;;;;7.67;100.00;100187.75;5094854;28;20540;-71
2024/02/20 07:46:02;;;;;;;89.05;44.75;;;;;;;7.78;100.00;100182.88;5108143;28;20507;-71
2024/02/20 07:48:27;;;;;;;86.82;45.95;;;;;;;7.94;100.00;100186.28;5092066;28;20024;-71
2024/02/20 07:50:52;;;;;;;94.97;47.97;;;;;;;7.61;100.00;100188.94;5074125;28;20024;-71
2024/02/20 07:53:18;;;;;;;89.20;47.75;;;;;;;7.04;100.00;100187.63;5075277;28;20089;-71
2024/02/20 07:55:43;;;;;;;92.68;46.08;;;;;;;6.86;100.00;100197.53;5106540;28;20031;-70
2024/02/20 07:58:09;;;;;;;82.10;43.45;;;;;;;7.23;100.00;100181.28;5094174;28;20587;-71
2024/02/20 08:00:36;;;;;;;77.45;41.95;;;;;;;7.55;100.00;100177.88;5094241;28;20035;-71
2024/02/20 08:03:01;;;;;;;80.97;43.08;;;;;;;7.65;100.00;100190.81;5093922;28;20023;-71
2024/02/20 08:05:27;;;;;;;98.55;48.03;;;;;;;7.37;100.00;100185.03;5112347;28;20506;-71
2024/02/20 08:07:53;;;;;;;95.72;46.97;;;;;;;7.35;100.00;100192.84;5111541;28;20084;-71
2024/02/20 08:10:19;;;;;;;88.53;47.25;;;;;;;7.36;100.00;100188.94;5093901;28;20126;-70
2024/02/20 08:12:45;;;;;;;107.70;51.13;;;;;;;7.39;100.00;100193.06;5093886;28;20467;-71
2024/02/20 08:15:10;;;;;;;104.53;47.13;;;;;;;7.52;100.00;100184.00;5112202;28;20020;-71
2024/02/20 08:17:36;;;;;;;88.50;45.13;;;;;;;7.50;100.00;100200.19;5094119;28;20027;-71
2024/02/20 08:20:04;;;;;;;100.78;47.70;;;;;;;7.52;100.00;100185.97;5093871;28;20030;-71
2024/02/20 08:22:30;;;;;;;90.18;46.22;;;;;;;7.55;100.00;100202.09;5112059;28;20023;-70
2024/02/20 08:24:56;;;;;;;89.68;43.63;;;;;;;7.45;100.00;100201.06;5107552;28;20035;-71
2024/02/20 08:27:22;;;;;;;164.57;88.22;;;;;;;7.85;100.00;100197.28;5111897;28;20495;-71
2024/02/20 08:29:48;;;;;;;91.30;47.67;;;;;;;7.82;100.00;100190.34;5111892;28;20160;-70
2024/02/20 08:32:14;;;;;;;86.70;44.95;;;;;;;8.09;100.00;100190.81;5111927;28;20102;-71
2024/02/20 08:34:40;;;;;;;87.80;46.85;;;;;;;8.22;100.00;100195.63;5105005;28;20028;-73
2024/02/20 08:37:05;;;;;;;86.55;43.78;;;;;;;8.27;100.00;100195.53;5091921;28;20019;-74
2024/02/20 08:39:31;;;;;;;88.10;47.25;;;;;;;8.49;100.00;100185.75;5111537;28;20058;-73
2024/02/20 08:41:57;;;;;;;87.70;43.45;;;;;;;8.71;100.00;100198.25;5110957;28;20488;-74
2024/02/20 08:44:24;;;;;;;87.18;46.75;;;;;;;8.65;100.00;100193.88;5111308;28;20027;-73
2024/02/20 08:46:49;;;;;;;79.03;42.80;;;;;;;8.83;100.00;100190.22;5110790;28;20054;-73
2024/02/20 08:49:15;;;;;;;82.32;45.30;;;;;;;8.86;100.00;100194.34;5089327;28;20435;-74
2024/02/20 08:51:42;;;;;;;76.53;44.05;;;;;;;8.90;100.00;100198.19;5106482;28;20092;-72
2024/02/20 08:54:07;;;;;;;82.97;42.28;;;;;;;8.90;100.00;100194.56;5099082;28;20023;-72
2024/02/20 08:56:33;;;;;;;81.13;41.00;;;;;;;8.82;100.00;100188.56;5083646;28;20023;-73
2024/02/20 08:58:58;;;;;;;73.90;39.40;;;;;;;8.77;100.00;100199.81;5078289;28;20051;-74
2024/02/20 09:01:27;;;;;;;87.95;50.13;;;;;;;8.76;100.00;100206.53;5076187;28;20024;-74
2024/02/20 09:03:54;;;;;;;113.40;75.60;;;;;;;8.79;100.00;100200.31;5082009;28;20066;-74
2024/02/20 09:06:20;;;;;;;80.57;44.58;;;;;;;8.74;100.00;100207.94;5102918;28;20185;-74
2024/02/20 09:08:46;;;;;;;81.18;41.58;;;;;;;8.94;100.00;100218.75;5106837;28;20035;-74
2024/02/20 09:11:11;;;;;;;85.78;45.72;;;;;;;9.07;100.00;100211.56;5095214;28;20019;-74
2024/02/20 09:13:38;;;;;;;82.50;43.00;;;;;;;9.06;100.00;100209.91;5090566;28;20515;-73
2024/02/20 09:16:04;;;;;;;79.70;40.13;;;;;;;8.88;100.00;100213.59;5090836;28;20043;-74
2024/02/20 09:18:34;;;;;;;73.72;41.60;;;;;;;8.52;100.00;100207.47;5082366;28;20106;-72
2024/02/20 09:20:59;;;;;;;77.75;43.03;;;;;;;8.66;100.00;100207.53;5107374;28;20015;-71
2024/02/20 09:23:25;;;;;;;84.30;43.38;;;;;;;7.99;100.00;100205.69;5106469;28;20027;-74
2024/02/20 09:25:50;;;;;;;76.05;43.05;;;;;;;8.04;100.00;100213.16;5103926;28;20092;-73
2024/02/20 09:28:16;;;;;;;77.13;41.28;;;;;;;8.16;100.00;100213.53;5101176;28;20019;-74
2024/02/20 09:30:41;;;;;;;83.07;42.72;;;;;;;8.49;100.00;100204.41;5097443;28;20020;-73
2024/02/20 09:33:07;;;;;;;83.82;42.78;;;;;;;8.68;100.00;100199.69;5086470;28;20028;-74
2024/02/20 09:35:32;;;;;;;78.78;40.88;;;;;;;8.94;100.00;100204.00;5106245;28;20058;-73
2024/02/20 09:37:58;;;;;;;83.40;44.22;;;;;;;8.75;100.00;100207.66;5099720;28;20077;-74
2024/02/20 09:40:24;;;;;;;74.18;41.78;;;;;;;8.79;100.00;100210.66;5084068;28;20450;-74
2024/02/20 09:42:50;;;;;;;76.38;40.90;;;;;;;8.99;100.00;100203.91;5086551;28;20035;-75
2024/02/20 09:45:19;;;;;;;76.65;40.75;;;;;;;9.09;100.00;100198.13;5107796;28;20020;-71
2024/02/20 09:47:46;;;;;;;78.43;42.65;;;;;;;9.11;100.00;100203.41;5108987;28;20061;-71
2024/02/20 09:50:15;;;;;;;84.15;45.75;;;;;;;9.37;100.00;100198.16;5102679;28;20458;-72
2024/02/20 09:52:44;;;;;;;81.47;41.20;;;;;;;9.21;100.00;100191.22;5099379;28;20020;-71
2024/02/20 09:55:11;;;;;;;82.68;44.15;;;;;;;9.27;100.00;100188.03;5096472;28;20403;-71
2024/02/20 09:57:37;;;;;;;76.05;40.17;;;;;;;9.21;100.00;100191.22;5097782;28;20043;-71
2024/02/20 10:00:03;;;;;;;82.25;46.50;;;;;;;9.22;100.00;100173.34;5100815;28;20027;-71
2024/02/20 10:02:30;;;;;;;80.43;43.38;;;;;;;9.27;100.00;100176.03;5075752;28;20019;-72
2024/02/20 10:04:55;;;;;;;77.40;43.33;;;;;;;9.05;100.00;100179.53;5102954;28;20443;-71
2024/02/20 10:07:20;;;;;;;82.00;45.38;;;;;;;9.16;100.00;100174.56;5086158;28;20028;-70
2024/02/20 10:09:46;;;;;;;88.30;44.00;;;;;;;9.33;100.00;100165.59;5102529;28;20039;-71
2024/02/20 10:12:20;;;;;;;90.43;47.03;;;;;;;9.47;100.00;100168.38;5102669;28;20023;-70
2024/02/20 10:14:46;;;;;;;93.80;47.65;;;;;;;9.30;100.00;100153.09;5086378;28;20039;-67
2024/02/20 10:17:14;;;;;;;145.20;78.65;;;;;;;9.50;100.00;100160.22;5097883;28;20027;-71
2024/02/20 10:19:39;;;;;;;98.53;52.03;;;;;;;9.70;100.00;100155.31;5107080;28;20046;-74
2024/02/20 10:22:05;;;;;;;87.28;45.95;;;;;;;9.64;99.27;100149.03;5094649;28;20460;-69
2024/02/20 10:24:30;;;;;;;85.22;45.60;;;;;;;10.01;97.80;100151.88;5088834;28;20023;-69
2024/02/20 10:26:56;;;;;;;92.90;48.20;;;;;;;9.96;96.23;100141.63;5087881;28;20035;-68
2024/02/20 10:29:22;;;;;;;87.63;45.95;;;;;;;10.25;94.35;100139.56;5092996;28;20093;-68
2024/02/20 10:31:47;;;;;;;89.05;47.10;;;;;;;10.27;95.37;100139.25;5097625;28;20035;-70
2024/02/20 10:34:19;;;;;;;98.53;46.67;;;;;;;10.43;95.49;100132.19;5108090;28;20102;-71
2024/02/20 10:36:45;;;;;;;86.22;47.08;;;;;;;10.43;95.04;100129.38;5108450;28;20023;-68
2024/02/20 10:39:10;;;;;;;92.28;47.50;;;;;;;10.51;93.83;100123.03;5097992;28;20040;-69
2024/02/20 10:41:36;;;;;;;84.25;46.75;;;;;;;10.23;93.20;100123.09;5096867;28;20031;-70
2024/02/20 10:44:03;;;;;;;83.22;45.38;;;;;;;10.21;93.66;100127.38;5088718;28;20031;-71
2024/02/20 10:46:35;;;;;;;84.15;47.00;;;;;;;10.31;92.58;100120.69;5106140;28;20459;-69
2024/02/20 10:49:19;;;;;;;80.97;45.92;;;;;;;10.50;92.17;100121.38;5078976;28;20028;-68
2024/02/20 10:51:47;;;;;;;76.45;44.15;;;;;;;10.76;89.44;100111.47;5085837;28;20084;-70
2024/02/20 10:54:16;;;;;;;93.97;55.05;;;;;;;11.12;89.03;100116.09;5108723;28;20027;-73
2024/02/20 10:56:42;;;;;;;79.70;43.88;;;;;;;10.86;88.56;100110.38;5077211;28;20028;-75
2024/02/20 10:59:09;;;;;;;82.50;44.25;;;;;;;10.97;89.85;100116.53;5087575;28;20039;-72
2024/02/20 11:01:37;;;;;;;78.22;43.65;;;;;;;11.03;89.24;100098.44;5103347;28;20034;-72